createdAt,value
2023-12-09T00:00:32.580Z,96917.78
2023-12-09T00:03:00.225Z,96909.84
2023-12-09T00:05:27.761Z,96919.41
2023-12-09T00:07:56.733Z,96915.13
2023-12-09T00:10:24.297Z,96916.75
2023-12-09T00:12:51.827Z,96914.94
2023-12-09T00:15:19.402Z,96912.28
2023-12-09T00:17:47.149Z,96920.03
2023-12-09T00:20:14.704Z,96918.22
2023-12-09T00:22:42.993Z,96922.84
2023-12-09T00:25:11.856Z,96910.03
2023-12-09T00:27:39.847Z,96914.28
2023-12-09T00:30:08.887Z,96909.84
2023-12-09T00:32:36.617Z,96907.84
2023-12-09T00:35:04.631Z,96905.38
2023-12-09T00:37:32.404Z,96913.28
2023-12-09T00:39:59.920Z,96913.28
2023-12-09T00:42:29.137Z,96907.22
2023-12-09T00:44:56.875Z,96917.56
2023-12-09T00:47:24.473Z,96916.94
2023-12-09T00:49:52.152Z,96911.81
2023-12-09T00:52:19.798Z,96922.03
2023-12-09T00:54:47.318Z,96918.56
2023-12-09T00:57:15.155Z,96905.22
2023-12-09T00:59:44.094Z,96901.56
2023-12-09T01:02:11.687Z,96910.50
2023-12-09T01:04:39.359Z,96919.03
2023-12-09T01:07:06.926Z,96910.13
2023-12-09T01:09:34.489Z,96913.97
2023-12-09T01:12:02.314Z,96918.22
2023-12-09T01:14:29.961Z,96920.88
2023-12-09T01:16:58.857Z,96926.16
2023-12-09T01:19:26.438Z,96927.94
2023-12-09T01:21:54.153Z,96905.06
2023-12-09T01:24:21.827Z,96927.94
2023-12-09T01:26:49.873Z,96919.88
2023-12-09T01:29:17.461Z,96918.22
2023-12-09T01:31:45.010Z,96921.50
2023-12-09T01:34:14.112Z,96922.34
2023-12-09T01:36:41.700Z,96929.59
2023-12-09T01:39:10.329Z,96927.50
2023-12-09T01:41:38.687Z,96931.28
2023-12-09T01:44:06.297Z,96931.28
2023-12-09T01:46:35.514Z,96937.09
2023-12-09T01:49:03.480Z,96936.94
2023-12-09T01:51:32.712Z,96935.94
2023-12-09T01:54:00.569Z,96939.56
2023-12-09T01:56:29.174Z,96935.09
2023-12-09T01:58:56.815Z,96935.28
2023-12-09T02:01:25.896Z,96943.38
2023-12-09T02:03:53.798Z,96940.75
2023-12-09T02:06:21.518Z,96936.28
2023-12-09T02:08:50.437Z,96935.56
2023-12-09T02:11:23.857Z,96938.56
2023-12-09T02:13:58.905Z,96944.38
2023-12-09T02:16:31.155Z,96942.84
2023-12-09T02:18:59.545Z,96943.69
2023-12-09T02:21:27.188Z,96942.84
2023-12-09T02:23:56.155Z,96942.00
2023-12-09T02:26:27.290Z,96949.13
2023-12-09T02:28:59.166Z,96948.97
2023-12-09T02:31:30.022Z,96949.75
2023-12-09T02:33:58.093Z,96950.75
2023-12-09T02:36:26.770Z,96953.88
2023-12-09T02:38:56.862Z,96954.88
2023-12-09T02:41:25.999Z,96944.31
2023-12-09T02:43:53.561Z,96953.03
2023-12-09T02:46:21.191Z,96959.31
2023-12-09T02:48:48.806Z,96962.31
2023-12-09T02:51:16.449Z,96962.31
2023-12-09T02:53:45.359Z,96957.69
2023-12-09T02:56:14.232Z,96957.69
2023-12-09T02:58:41.772Z,96959.31
2023-12-09T03:01:09.385Z,96959.16
2023-12-09T03:03:36.976Z,96951.59
2023-12-09T03:06:04.874Z,96957.69
2023-12-09T03:08:32.402Z,96959.31
2023-12-09T03:10:59.935Z,96962.16
2023-12-09T03:13:28.846Z,96956.88
2023-12-09T03:15:56.420Z,96959.31
2023-12-09T03:18:24.283Z,96953.25
2023-12-09T03:20:51.908Z,96956.50
2023-12-09T03:23:18.481Z,96955.97
2023-12-09T03:25:46.143Z,96959.78
2023-12-09T03:28:14.177Z,96957.50
2023-12-09T03:30:43.103Z,96962.94
2023-12-09T03:33:10.805Z,96961.94
2023-12-09T03:35:38.541Z,96969.56
2023-12-09T03:38:06.267Z,96976.66
2023-12-09T03:40:33.867Z,96974.19
2023-12-09T03:43:01.448Z,96976.03
2023-12-09T03:45:29.074Z,96979.00
2023-12-09T03:47:58.234Z,96977.38
2023-12-09T03:50:25.855Z,96977.38
2023-12-09T03:52:53.600Z,96981.00
2023-12-09T03:55:21.193Z,96969.78
2023-12-09T03:57:50.006Z,96964.72
2023-12-09T04:00:18.079Z,96976.53
2023-12-09T04:02:45.692Z,96973.72
2023-12-09T04:05:15.288Z,96974.03
2023-12-09T04:07:42.872Z,96982.41
2023-12-09T04:10:11.211Z,96980.13
2023-12-09T04:12:38.800Z,96982.75
2023-12-09T04:15:07.466Z,96971.22
2023-12-09T04:17:35.077Z,96970.06
2023-12-09T04:20:03.895Z,96977.16
2023-12-09T04:22:33.046Z,96977.78
2023-12-09T04:25:00.602Z,96977.63
2023-12-09T04:27:28.245Z,96982.72
2023-12-09T04:29:55.802Z,96981.25
2023-12-09T04:32:23.493Z,96980.41
2023-12-09T04:34:51.071Z,96974.97
2023-12-09T04:37:18.637Z,96978.44
2023-12-09T04:39:47.555Z,96978.44
2023-12-09T04:42:15.178Z,96967.91
2023-12-09T04:44:42.754Z,96965.72
2023-12-09T04:47:10.563Z,96960.25
2023-12-09T04:49:38.282Z,96946.81
2023-12-09T04:52:06.693Z,96961.78
2023-12-09T04:54:34.378Z,96957.50
2023-12-09T04:57:03.476Z,96967.22
2023-12-09T04:59:31.103Z,96959.97
2023-12-09T05:01:58.667Z,96962.41
2023-12-09T05:04:26.416Z,96954.00
2023-12-09T05:06:54.153Z,96951.88
2023-12-09T05:09:23.522Z,96955.69
2023-12-09T05:11:51.065Z,96959.16
2023-12-09T05:14:19.976Z,96949.59
2023-12-09T05:16:48.217Z,96955.03
2023-12-09T05:19:15.812Z,96963.94
2023-12-09T05:21:43.642Z,96961.94
2023-12-09T05:24:11.692Z,96963.59
2023-12-09T05:26:39.265Z,96963.59
2023-12-09T05:29:07.882Z,96959.16
2023-12-09T05:31:36.890Z,96958.31
2023-12-09T05:34:05.152Z,96957.69
2023-12-09T05:36:32.891Z,96968.06
2023-12-09T05:39:00.625Z,96978.94
2023-12-09T05:41:28.244Z,96975.16
2023-12-09T05:43:55.824Z,96979.25
2023-12-09T05:46:23.472Z,96979.91
2023-12-09T05:48:52.569Z,96977.44
2023-12-09T05:51:20.554Z,96968.16
2023-12-09T05:53:48.185Z,96972.66
2023-12-09T05:56:15.787Z,96981.72
2023-12-09T05:58:43.386Z,96981.72
2023-12-09T06:01:11.347Z,96976.63
2023-12-09T06:03:39.235Z,96979.25
2023-12-09T06:06:09.128Z,96985.69
2023-12-09T06:08:36.760Z,96977.44
2023-12-09T06:11:04.802Z,96979.09
2023-12-09T06:13:32.952Z,96968.00
2023-12-09T06:16:00.532Z,96957.63
2023-12-09T06:18:28.231Z,96963.25
2023-12-09T06:20:55.847Z,96964.59
2023-12-09T06:23:24.865Z,96963.59
2023-12-09T06:25:52.393Z,96964.44
2023-12-09T06:28:19.974Z,96956.19
2023-12-09T06:30:47.691Z,96958.63
2023-12-09T06:33:15.324Z,96948.97
2023-12-09T06:35:43.141Z,96957.81
2023-12-09T06:38:10.757Z,96971.19
2023-12-09T06:40:39.693Z,96977.63
2023-12-09T06:43:07.479Z,96982.91
2023-12-09T06:45:35.083Z,96980.25
2023-12-09T06:48:02.891Z,96981.56
2023-12-09T06:50:30.584Z,96980.72
2023-12-09T06:52:58.138Z,96985.19
2023-12-09T06:55:25.904Z,96988.63
2023-12-09T06:57:54.988Z,96978.56
2023-12-09T07:00:22.954Z,96974.91
2023-12-09T07:02:58.758Z,96978.22
2023-12-09T07:05:28.334Z,96982.97
2023-12-09T07:07:56.471Z,96986.78
2023-12-09T07:10:24.045Z,96979.78
2023-12-09T07:12:51.664Z,96980.16
2023-12-09T07:15:21.585Z,96973.25
2023-12-09T07:17:49.244Z,96975.53
2023-12-09T07:20:17.050Z,96981.81
2023-12-09T07:22:44.819Z,96969.13
2023-12-09T07:25:12.402Z,96970.94
2023-12-09T07:27:39.999Z,96968.94
2023-12-09T07:30:08.894Z,96971.41
2023-12-09T07:32:37.983Z,96975.06
2023-12-09T07:35:06.757Z,96983.59
2023-12-09T07:37:34.385Z,96969.25
2023-12-09T07:40:01.948Z,96978.00
2023-12-09T07:42:29.719Z,96976.00
2023-12-09T07:44:57.497Z,96972.66
2023-12-09T07:47:25.061Z,96963.38
2023-12-09T07:49:54.020Z,96954.63
2023-12-09T07:52:21.689Z,96956.47
2023-12-09T07:54:49.261Z,96962.72
2023-12-09T07:57:16.912Z,96976.94
2023-12-09T07:59:44.533Z,96968.91
2023-12-09T08:02:12.086Z,96972.00
2023-12-09T08:04:40.184Z,96977.94
2023-12-09T08:07:09.154Z,96970.78
2023-12-09T08:09:36.879Z,96977.84
2023-12-09T08:12:04.841Z,96980.78
2023-12-09T08:14:32.457Z,96983.28
2023-12-09T08:17:00.051Z,96968.13
2023-12-09T08:19:27.773Z,96970.59
2023-12-09T08:21:55.890Z,96974.06
2023-12-09T08:24:24.883Z,96971.72
2023-12-09T08:26:52.569Z,96966.09
2023-12-09T08:29:21.414Z,96971.53
2023-12-09T08:31:50.619Z,96968.25
2023-12-09T08:34:18.373Z,96968.44
2023-12-09T08:36:46.208Z,96970.81
2023-12-09T08:39:15.320Z,96971.28
2023-12-09T08:41:44.322Z,96962.66
2023-12-09T08:44:11.956Z,96960.78
2023-12-09T08:46:39.515Z,96944.22
2023-12-09T08:49:07.234Z,96943.19
2023-12-09T08:51:45.026Z,96944.13
2023-12-09T08:54:12.757Z,96946.88
2023-12-09T08:56:40.425Z,96939.84
2023-12-09T08:59:11.186Z,96937.22
2023-12-09T09:01:39.304Z,96949.25
2023-12-09T09:04:07.431Z,96947.41
2023-12-09T09:06:35.315Z,96940.59
2023-12-09T09:09:02.929Z,96936.22
2023-12-09T09:11:30.535Z,96943.44
2023-12-09T09:13:58.054Z,96934.66
2023-12-09T09:16:28.554Z,96932.28
2023-12-09T09:18:56.865Z,96938.59
2023-12-09T09:21:24.886Z,96935.78
2023-12-09T09:23:52.493Z,96929.03
2023-12-09T09:26:20.292Z,96926.56
2023-12-09T09:28:47.918Z,96930.09
2023-12-09T09:31:15.636Z,96931.56
2023-12-09T09:33:44.640Z,96937.97
2023-12-09T09:36:12.515Z,96932.56
2023-12-09T09:38:40.347Z,96916.88
2023-12-09T09:41:09.637Z,96906.03
2023-12-09T09:43:40.793Z,96904.50
2023-12-09T09:46:09.298Z,96906.22
2023-12-09T09:48:39.311Z,96906.09
2023-12-09T09:51:08.537Z,96906.28
2023-12-09T09:53:38.576Z,96905.41
2023-12-09T09:56:08.124Z,96906.31
2023-12-09T09:58:36.246Z,96901.56
2023-12-09T10:01:05.722Z,96901.22
2023-12-09T10:03:33.498Z,96890.56
2023-12-09T10:06:01.419Z,96882.81
2023-12-09T10:08:32.128Z,96882.28
2023-12-09T10:10:59.940Z,96875.25
2023-12-09T10:13:27.565Z,96869.84
2023-12-09T10:15:55.234Z,96871.75
2023-12-09T10:18:23.246Z,96859.16
2023-12-09T10:20:51.198Z,96851.88
2023-12-09T10:23:18.863Z,96843.84
2023-12-09T10:25:50.109Z,96845.91
2023-12-09T10:28:17.691Z,96831.16
2023-12-09T10:30:45.377Z,96831.41
2023-12-09T10:33:13.445Z,96818.38
2023-12-09T10:35:41.413Z,96808.41
2023-12-09T10:38:10.675Z,96799.72
2023-12-09T10:40:38.414Z,96813.22
2023-12-09T10:43:07.345Z,96813.22
2023-12-09T10:45:35.620Z,96803.25
2023-12-09T10:48:04.495Z,96802.50
2023-12-09T10:50:32.553Z,96805.78
2023-12-09T10:53:00.203Z,96795.81
2023-12-09T10:55:27.812Z,96803.38
2023-12-09T10:57:56.049Z,96788.84
2023-12-09T11:00:26.083Z,96789.09
2023-12-09T11:02:54.139Z,96792.94
2023-12-09T11:05:23.123Z,96790.50
2023-12-09T11:07:51.041Z,96770.31
2023-12-09T11:10:19.393Z,96784.78
2023-12-09T11:12:49.234Z,96781.91
2023-12-09T11:15:23.477Z,96766.22
2023-12-09T11:17:55.153Z,96778.88
2023-12-09T11:20:24.088Z,96779.00
2023-12-09T11:22:51.811Z,96780.88
2023-12-09T11:25:23.618Z,96773.22
2023-12-09T11:27:52.388Z,96782.41
2023-12-09T11:30:34.767Z,96775.28
2023-12-09T11:33:04.408Z,96774.50
2023-12-09T11:35:32.808Z,96773.97
2023-12-09T11:38:01.355Z,96764.56
2023-12-09T11:40:29.716Z,96746.41
2023-12-09T11:42:59.174Z,96749.91
2023-12-09T11:45:27.105Z,96758.84
2023-12-09T11:47:57.746Z,96745.97
2023-12-09T11:50:29.031Z,96753.84
2023-12-09T11:52:56.879Z,96744.09
2023-12-09T11:55:24.602Z,96725.75
2023-12-09T11:57:52.187Z,96724.13
2023-12-09T12:00:20.568Z,96721.31
2023-12-09T12:02:49.493Z,96713.38
2023-12-09T12:05:17.454Z,96709.28
2023-12-09T12:07:46.534Z,96706.19
2023-12-09T12:10:15.775Z,96694.16
2023-12-09T12:12:44.751Z,96687.25
2023-12-09T12:15:12.618Z,96684.34
2023-12-09T12:17:41.650Z,96671.88
2023-12-09T12:20:11.982Z,96668.38
2023-12-09T12:22:41.525Z,96668.72
2023-12-09T12:25:11.373Z,96662.00
2023-12-09T12:27:44.068Z,96661.81
2023-12-09T12:30:11.966Z,96656.50
2023-12-09T12:32:40.023Z,96660.06
2023-12-09T12:35:08.461Z,96650.88
2023-12-09T12:37:36.062Z,96642.75
2023-12-09T12:40:04.799Z,96633.78
2023-12-09T12:42:34.078Z,96634.75
2023-12-09T12:45:04.509Z,96635.19
2023-12-09T12:47:32.169Z,96626.06
2023-12-09T12:49:59.846Z,96624.63
2023-12-09T12:52:27.716Z,96617.09
2023-12-09T12:54:55.405Z,96612.81
2023-12-09T12:57:23.005Z,96594.69
2023-12-09T12:59:53.833Z,96585.13
2023-12-09T13:02:23.429Z,96570.09
2023-12-09T13:04:51.051Z,96560.91
2023-12-09T13:07:19.217Z,96544.47
2023-12-09T13:09:46.797Z,96538.16
2023-12-09T13:12:14.466Z,96532.84
2023-12-09T13:14:42.105Z,96535.66
2023-12-09T13:17:11.168Z,96540.94
2023-12-09T13:19:38.963Z,96534.03
2023-12-09T13:22:06.698Z,96523.84
2023-12-09T13:24:34.305Z,96514.91
2023-12-09T13:27:01.990Z,96509.00
2023-12-09T13:29:29.556Z,96511.63
2023-12-09T13:31:57.401Z,96508.63
2023-12-09T13:34:28.046Z,96501.91
2023-12-09T13:36:56.101Z,96502.81
2023-12-09T13:39:26.760Z,96478.84
2023-12-09T13:41:54.494Z,96476.63
2023-12-09T13:44:22.082Z,96479.28
2023-12-09T13:46:49.661Z,96467.50
2023-12-09T13:49:17.668Z,96465.69
2023-12-09T13:51:47.332Z,96461.38
2023-12-09T13:54:14.992Z,96463.84
2023-12-09T13:56:42.698Z,96458.75
2023-12-09T13:59:10.343Z,96456.50
2023-12-09T14:01:38.000Z,96455.44
2023-12-09T14:04:06.495Z,96449.34
2023-12-09T14:06:34.257Z,96444.88
2023-12-09T14:09:03.434Z,96444.88
2023-12-09T14:11:32.255Z,96449.34
2023-12-09T14:13:59.844Z,96440.41
2023-12-09T14:16:27.558Z,96443.63
2023-12-09T14:18:55.653Z,96437.34
2023-12-09T14:21:23.952Z,96431.03
2023-12-09T14:23:51.547Z,96425.50
2023-12-09T14:26:20.622Z,96422.09
2023-12-09T14:28:48.214Z,96431.22
2023-12-09T14:31:15.785Z,96417.81
2023-12-09T14:33:43.551Z,96425.50
2023-12-09T14:36:11.924Z,96430.81
2023-12-09T14:38:39.585Z,96420.44
2023-12-09T14:41:07.472Z,96404.28
2023-12-09T14:43:36.389Z,96430.72
2023-12-09T14:46:04.122Z,96438.03
2023-12-09T14:48:32.888Z,96433.97
2023-12-09T14:51:00.693Z,96433.13
2023-12-09T14:53:28.217Z,96420.94
2023-12-09T14:55:56.024Z,96404.72
2023-12-09T14:58:23.552Z,96384.53
2023-12-09T15:00:52.533Z,96395.34
2023-12-09T15:03:20.253Z,96387.66
2023-12-09T15:05:48.170Z,96370.34
2023-12-09T15:08:15.800Z,96353.28
2023-12-09T15:10:43.430Z,96342.72
2023-12-09T15:13:11.057Z,96330.91
2023-12-09T15:15:38.759Z,96339.25
2023-12-09T15:18:07.795Z,96340.66
2023-12-09T15:20:35.422Z,96337.41
2023-12-09T15:23:02.982Z,96349.34
2023-12-09T15:25:30.561Z,96343.47
2023-12-09T15:27:58.136Z,96335.72
2023-12-09T15:30:25.787Z,96333.72
2023-12-09T15:32:53.457Z,96338.00
2023-12-09T15:35:22.373Z,96329.44
2023-12-09T15:37:49.976Z,96301.63
2023-12-09T15:40:17.699Z,96293.69
2023-12-09T15:42:45.450Z,96291.44
2023-12-09T15:45:13.211Z,96282.09
2023-12-09T15:47:40.921Z,96258.31
2023-12-09T15:50:10.114Z,96243.91
2023-12-09T15:52:39.040Z,96253.81
2023-12-09T15:55:07.243Z,96241.81
2023-12-09T15:57:34.882Z,96241.81
2023-12-09T16:00:02.570Z,96241.22
2023-12-09T16:02:30.400Z,96236.31
2023-12-09T16:04:58.221Z,96236.13
2023-12-09T16:07:26.080Z,96217.03
2023-12-09T16:09:58.187Z,96209.09
2023-12-09T16:12:26.806Z,96203.41
2023-12-09T16:14:55.148Z,96198.13
2023-12-09T16:17:22.935Z,96204.44
2023-12-09T16:19:51.205Z,96197.34
2023-12-09T16:22:18.857Z,96194.31
2023-12-09T16:24:48.190Z,96175.41
2023-12-09T16:27:17.424Z,96169.13
2023-12-09T16:29:45.053Z,96167.47
2023-12-09T16:32:12.631Z,96163.84
2023-12-09T16:34:40.428Z,96154.91
2023-12-09T16:37:08.152Z,96159.75
2023-12-09T16:39:35.828Z,96146.97
2023-12-09T16:42:03.694Z,96144.94
2023-12-09T16:44:32.712Z,96139.84
2023-12-09T16:47:00.303Z,96138.03
2023-12-09T16:49:28.076Z,96114.25
2023-12-09T16:51:55.753Z,96113.22
2023-12-09T16:54:24.411Z,96108.78
2023-12-09T16:56:52.441Z,96108.56
2023-12-09T16:59:20.061Z,96104.09
2023-12-09T17:01:49.065Z,96100.41
2023-12-09T17:04:16.772Z,96108.34
2023-12-09T17:06:44.533Z,96102.06
2023-12-09T17:09:12.150Z,96096.75
2023-12-09T17:11:39.905Z,96083.53
2023-12-09T17:14:07.465Z,96086.19
2023-12-09T17:16:35.041Z,96081.53
2023-12-09T17:19:06.859Z,96072.59
2023-12-09T17:21:34.693Z,96063.03
2023-12-09T17:24:02.371Z,96055.72
2023-12-09T17:26:30.480Z,96051.44
2023-12-09T17:28:58.164Z,96047.59
2023-12-09T17:31:26.171Z,96048.81
2023-12-09T17:33:53.835Z,96054.69
2023-12-09T17:36:24.266Z,96040.06
2023-12-09T17:38:51.946Z,96039.25
2023-12-09T17:41:20.234Z,96032.97
2023-12-09T17:43:47.921Z,96027.88
2023-12-09T17:46:15.490Z,96005.31
2023-12-09T17:48:43.290Z,95986.59
2023-12-09T17:51:11.195Z,95962.41
2023-12-09T17:53:40.145Z,95970.16
2023-12-09T17:56:08.672Z,95952.47
2023-12-09T17:58:36.228Z,95950.63
2023-12-09T18:01:02.948Z,95934.38
2023-12-09T18:03:30.704Z,95924.59
2023-12-09T18:05:58.496Z,95918.72
2023-12-09T18:08:26.214Z,95899.81
2023-12-09T18:10:55.596Z,95891.69
2023-12-09T18:13:23.247Z,95874.41
2023-12-09T18:15:51.279Z,95870.09
2023-12-09T18:18:19.021Z,95879.25
2023-12-09T18:20:48.109Z,95881.69
2023-12-09T18:23:15.673Z,95863.34
2023-12-09T18:25:43.335Z,95858.88
2023-12-09T18:28:12.275Z,95848.75
2023-12-09T18:30:40.120Z,95841.81
2023-12-09T18:33:07.761Z,95841.59
2023-12-09T18:35:35.356Z,95848.13
2023-12-09T18:38:03.406Z,95831.88
2023-12-09T18:40:30.980Z,95830.66
2023-12-09T18:43:00.332Z,95815.63
2023-12-09T18:45:29.371Z,95790.41
2023-12-09T18:47:57.171Z,95769.69
2023-12-09T18:50:25.082Z,95764.59
2023-12-09T18:52:56.555Z,95756.69
2023-12-09T18:55:24.203Z,95765.22
2023-12-09T18:57:51.922Z,95746.94
2023-12-09T19:00:20.063Z,95747.38
2023-12-09T19:02:49.130Z,95754.44
2023-12-09T19:05:16.981Z,95738.78
2023-12-09T19:07:44.583Z,95740.78
2023-12-09T19:10:12.153Z,95726.38
2023-12-09T19:12:39.786Z,95718.25
2023-12-09T19:15:09.570Z,95736.53
2023-12-09T19:17:37.363Z,95718.88
2023-12-09T19:20:08.223Z,95719.69
2023-12-09T19:22:35.910Z,95717.03
2023-12-09T19:25:03.509Z,95701.19
2023-12-09T19:27:31.137Z,95695.75
2023-12-09T19:29:58.703Z,95697.38
2023-12-09T19:32:28.045Z,95692.09
2023-12-09T19:34:56.087Z,95689.22
2023-12-09T19:37:25.228Z,95685.56
2023-12-09T19:39:52.927Z,95681.06
2023-12-09T19:42:21.115Z,95676.59
2023-12-09T19:44:48.781Z,95682.69
2023-12-09T19:47:16.428Z,95679.47
2023-12-09T19:49:44.203Z,95685.19
2023-12-09T19:52:11.835Z,95690.09
2023-12-09T19:54:40.804Z,95694.34
2023-12-09T19:57:09.075Z,95682.81
2023-12-09T19:59:36.729Z,95697.28
2023-12-09T20:02:04.399Z,95695.28
2023-12-09T20:04:32.018Z,95697.47
2023-12-09T20:06:59.702Z,95709.47
2023-12-09T20:09:27.347Z,95703.59
2023-12-09T20:11:56.326Z,95699.53
2023-12-09T20:14:23.904Z,95711.31
2023-12-09T20:16:51.507Z,95710.69
2023-12-09T20:19:19.993Z,95700.75
2023-12-09T20:21:49.665Z,95702.19
2023-12-09T20:24:17.356Z,95685.56
2023-12-09T20:26:45.127Z,95682.50
2023-12-09T20:29:14.333Z,95659.38
2023-12-09T20:31:43.447Z,95639.06
2023-12-09T20:34:12.163Z,95633.78
2023-12-09T20:36:40.103Z,95616.31
2023-12-09T20:39:07.731Z,95617.94
2023-12-09T20:41:35.531Z,95624.00
2023-12-09T20:44:03.801Z,95616.72
2023-12-09T20:46:33.279Z,95606.16
2023-12-09T20:49:00.926Z,95606.16
2023-12-09T20:51:30.403Z,95594.75
2023-12-09T20:53:58.057Z,95584.78
2023-12-09T20:56:25.713Z,95589.22
2023-12-09T20:58:53.276Z,95600.56
2023-12-09T21:01:21.033Z,95601.34
2023-12-09T21:03:50.101Z,95609.28
2023-12-09T21:06:18.146Z,95606.06
2023-12-09T21:08:45.754Z,95595.53
2023-12-09T21:11:14.771Z,95599.56
2023-12-09T21:13:41.878Z,95586.56
2023-12-09T21:16:10.148Z,95587.59
2023-12-09T21:18:38.002Z,95592.28
2023-12-09T21:21:07.447Z,95604.91
2023-12-09T21:23:35.246Z,95603.50
2023-12-09T21:26:02.840Z,95609.16
2023-12-09T21:28:30.392Z,95598.22
2023-12-09T21:30:58.135Z,95593.72
2023-12-09T21:33:26.628Z,95592.31
2023-12-09T21:35:54.331Z,95569.59
2023-12-09T21:38:23.188Z,95559.47
2023-12-09T21:40:50.974Z,95542.00
2023-12-09T21:43:18.549Z,95532.63
2023-12-09T21:45:46.182Z,95537.69
2023-12-09T21:48:15.841Z,95540.91
2023-12-09T21:50:43.647Z,95542.16
2023-12-09T21:53:11.276Z,95536.66
2023-12-09T21:55:41.554Z,95542.53
2023-12-09T21:58:11.189Z,95550.44
2023-12-09T22:00:38.945Z,95553.72
2023-12-09T22:03:06.738Z,95553.91
2023-12-09T22:05:35.687Z,95560.59
2023-12-09T22:08:03.265Z,95569.75
2023-12-09T22:10:30.852Z,95575.25
2023-12-09T22:12:59.853Z,95577.09
2023-12-09T22:15:27.555Z,95580.53
2023-12-09T22:17:55.378Z,95586.63
2023-12-09T22:20:23.069Z,95583.16
2023-12-09T22:22:54.618Z,95574.22
2023-12-09T22:25:23.524Z,95571.56
2023-12-09T22:27:51.138Z,95575.25
2023-12-09T22:30:20.370Z,95582.31
2023-12-09T22:32:48.048Z,95584.38
2023-12-09T22:35:15.917Z,95589.44
2023-12-09T22:37:43.529Z,95598.97
2023-12-09T22:40:11.737Z,95609.81
2023-12-09T22:42:39.475Z,95603.59
2023-12-09T22:45:08.147Z,95591.19
2023-12-09T22:47:37.544Z,95600.53
2023-12-09T22:50:06.087Z,95601.16
2023-12-09T22:52:34.111Z,95597.69
2023-12-09T22:55:01.714Z,95612.50
2023-12-09T22:57:29.404Z,95619.84
2023-12-09T22:59:57.068Z,95608.25
2023-12-09T23:02:24.861Z,95613.13
2023-12-09T23:04:53.870Z,95620.59
2023-12-09T23:07:21.500Z,95621.44
2023-12-09T23:09:49.128Z,95616.72
2023-12-09T23:12:16.790Z,95619.16
2023-12-09T23:14:44.391Z,95625.88
2023-12-09T23:17:11.960Z,95617.50
2023-12-09T23:19:42.098Z,95614.06
2023-12-09T23:22:10.948Z,95619.75
2023-12-09T23:24:38.583Z,95613.69
2023-12-09T23:27:07.051Z,95616.72
2023-12-09T23:29:34.863Z,95610.97
2023-12-09T23:32:02.484Z,95622.00
2023-12-09T23:34:30.109Z,95618.16
2023-12-09T23:36:57.761Z,95611.72
2023-12-09T23:39:26.794Z,95615.16
2023-12-09T23:41:54.443Z,95600.78
2023-12-09T23:44:23.062Z,95616.94
2023-12-09T23:46:50.667Z,95616.56
2023-12-09T23:49:18.234Z,95620.66
2023-12-09T23:51:45.910Z,95620.66
2023-12-09T23:54:13.581Z,95626.16
2023-12-09T23:56:42.769Z,95622.50
2023-12-09T23:59:10.328Z,95618.06
